Time;durP1;ratioP1;P1;durP2;ratioP2;P2;SDS_P1;SDS_P2;PMS_P1;PMS_P2;Temp;Humidity;BMP_temperature;BMP_pressure;BME280_temperature;BME280_humidity;BME280_pressure;Samples;Min_cycle;Max_cycle;Signal;HPM_P1;HPM_P2
2023/02/04 00:00:47;;;;;;;;;;;;;;;5.52;100.00;97739.66;5078856;28;20348;-74
2023/02/04 00:03:14;;;;;;;;;;;;;;;5.54;100.00;97737.72;5096343;28;20418;-74
2023/02/04 00:05:39;;;;;;;;;;;;;;;5.56;100.00;97744.41;5096695;28;19943;-74
2023/02/04 00:08:05;;;;;;;;;;;;;;;5.56;100.00;97741.81;5096457;28;20304;-74
2023/02/04 00:10:31;;;;;;;;;;;;;;;5.57;100.00;97742.66;5096528;28;20036;-74
2023/02/04 00:12:57;;;;;;;;;;;;;;;5.57;100.00;97742.66;5096076;28;20340;-74
2023/02/04 00:15:23;;;;;;;;;;;;;;;5.59;100.00;97745.91;5096631;28;20014;-74
2023/02/04 00:17:49;;;;;;;;;;;;;;;5.61;100.00;97744.78;5095689;28;20005;-74
2023/02/04 00:20:15;;;;;;;;;;;;;;;5.60;100.00;97742.31;5096228;28;19957;-74
2023/02/04 00:22:41;;;;;;;;;;;;;;;5.60;100.00;97753.53;5094791;28;19972;-75
2023/02/04 00:25:07;;;;;;;;;;;;;;;5.61;100.00;97751.78;5096157;28;19957;-74
2023/02/04 00:27:33;;;;;;;;;;;;;;;5.60;100.00;97752.72;5095929;28;19956;-75
2023/02/04 00:29:59;;;;;;;;;;;;;;;5.59;100.00;97757.13;5078283;28;19949;-74
2023/02/04 00:32:24;;;;;;;;;;;;;;;5.60;100.00;97760.53;5095888;28;20005;-74
2023/02/04 00:34:52;;;;;;;;;;;;;;;5.58;100.00;97744.25;5096497;28;19958;-74
2023/02/04 00:37:18;;;;;;;;;;;;;;;5.56;100.00;97747.00;5095898;28;19955;-74
2023/02/04 00:39:44;;;;;;;;;;;;;;;5.58;100.00;97746.88;5095866;28;20340;-74
2023/02/04 00:42:10;;;;;;;;;;;;;;;5.57;100.00;97751.25;5095448;28;20019;-74
2023/02/04 00:44:35;;;;;;;;;;;;;;;5.57;100.00;97743.47;5095762;28;19973;-74
2023/02/04 00:47:02;;;;;;;;;;;;;;;5.57;100.00;97750.44;5095635;28;19965;-74
2023/02/04 00:49:28;;;;;;;;;;;;;;;5.55;100.00;97735.00;5096017;28;19959;-74
2023/02/04 00:51:53;;;;;;;;;;;;;;;5.55;100.00;97741.97;5095634;28;20006;-74
2023/02/04 00:54:19;;;;;;;;;;;;;;;5.55;100.00;97739.38;5095513;28;19977;-74
2023/02/04 00:56:45;;;;;;;;;;;;;;;5.56;100.00;97743.59;5095437;28;20009;-75
2023/02/04 00:59:11;;;;;;;;;;;;;;;5.56;100.00;97738.41;5095542;28;20053;-74
2023/02/04 01:01:37;;;;;;;;;;;;;;;5.56;100.00;97741.81;5095597;28;20480;-74
2023/02/04 01:04:03;;;;;;;;;;;;;;;5.57;100.00;97740.84;5095495;28;20007;-74
2023/02/04 01:06:29;;;;;;;;;;;;;;;5.57;100.00;97735.66;5076775;28;19952;-74
2023/02/04 01:08:55;;;;;;;;;;;;;;;5.58;100.00;97741.66;5095563;28;19957;-74
2023/02/04 01:11:21;;;;;;;;;;;;;;;5.58;100.00;97733.84;5095257;28;19947;-74
2023/02/04 01:13:46;;;;;;;;;;;;;;;5.57;100.00;97746.06;5094918;28;19952;-74
2023/02/04 01:16:12;;;;;;;;;;;;;;;5.59;100.00;97743.31;5095217;28;19955;-74
2023/02/04 01:18:38;;;;;;;;;;;;;;;5.57;100.00;97747.84;5094986;28;19996;-74
2023/02/04 01:21:05;;;;;;;;;;;;;;;5.57;100.00;97748.66;5076947;28;19951;-74
2023/02/04 01:23:31;;;;;;;;;;;;;;;5.54;100.00;97751.56;5094986;28;19956;-74
2023/02/04 01:25:57;;;;;;;;;;;;;;;5.53;100.00;97747.34;5095128;28;19945;-74
2023/02/04 01:28:23;;;;;;;;;;;;;;;5.53;100.00;97755.13;5095014;28;20507;-74
2023/02/04 01:30:49;;;;;;;;;;;;;;;5.53;100.00;97755.13;5094741;28;19958;-74
2023/02/04 01:33:15;;;;;;;;;;;;;;;5.53;100.00;97749.94;5095286;28;19957;-74
2023/02/04 01:35:40;;;;;;;;;;;;;;;5.52;100.00;97745.69;5094760;28;20434;-74
2023/02/04 01:38:06;;;;;;;;;;;;;;;5.55;100.00;97752.38;5094769;28;19951;-74
2023/02/04 01:40:32;;;;;;;;;;;;;;;5.57;100.00;97755.66;5094562;28;20001;-74
2023/02/04 01:42:58;;;;;;;;;;;;;;;5.57;100.00;97747.84;5094658;28;20326;-75
2023/02/04 01:45:24;;;;;;;;;;;;;;;5.56;100.00;97754.00;5095140;28;20338;-74
2023/02/04 01:47:50;;;;;;;;;;;;;;;5.56;100.00;97751.41;5094279;28;19954;-74
2023/02/04 01:50:16;;;;;;;;;;;;;;;5.54;100.00;97759.34;5094408;28;19964;-74
2023/02/04 01:52:43;;;;;;;;;;;;;;;5.52;100.00;97752.69;5093872;28;19952;-75
2023/02/04 01:55:14;;;;;;;;;;;;;;;5.52;100.00;97752.69;5094467;28;19956;-74
2023/02/04 01:57:40;;;;;;;;;;;;;;;5.51;100.00;97746.66;5093723;28;19956;-74
2023/02/04 02:00:13;;;;;;;;;;;;;;;5.49;100.00;97741.59;5094337;28;19953;-74
2023/02/04 02:02:41;;;;;;;;;;;;;;;5.51;100.00;97746.66;5094308;28;19946;-74
2023/02/04 02:05:20;;;;;;;;;;;;;;;5.53;100.00;97744.72;5094333;28;19950;-74
2023/02/04 02:07:46;;;;;;;;;;;;;;;5.54;100.00;97746.34;5094048;28;19958;-74
2023/02/04 02:10:13;;;;;;;;;;;;;;;5.53;100.00;97752.53;5094618;28;20398;-74
2023/02/04 02:12:40;;;;;;;;;;;;;;;5.53;100.00;97757.75;5094291;28;20295;-74
2023/02/04 02:15:07;;;;;;;;;;;;;;;5.52;100.00;97745.69;5094060;28;19949;-74
2023/02/04 02:17:33;;;;;;;;;;;;;;;5.52;100.00;97745.69;5094100;28;19951;-74
2023/02/04 02:19:59;;;;;;;;;;;;;;;5.53;100.00;97749.13;5093928;28;20381;-74
2023/02/04 02:22:28;;;;;;;;;;;;;;;5.52;100.00;97742.28;5093856;28;19946;-74
2023/02/04 02:24:53;;;;;;;;;;;;;;;5.52;100.00;97747.47;5094249;28;19964;-74
2023/02/04 02:27:20;;;;;;;;;;;;;;;5.50;100.00;97745.03;5094050;28;20001;-74
2023/02/04 02:29:46;;;;;;;;;;;;;;;5.53;100.00;97744.72;5093983;28;19963;-74
2023/02/04 02:32:13;;;;;;;;;;;;;;;5.56;100.00;97746.19;5094154;28;19986;-74
2023/02/04 02:34:40;;;;;;;;;;;;;;;5.59;100.00;97759.72;5093931;28;19952;-74
2023/02/04 02:37:07;;;;;;;;;;;;;;;5.60;100.00;97753.53;5093683;28;19951;-74
2023/02/04 02:39:34;;;;;;;;;;;;;;;5.61;100.00;97749.97;5093668;28;20432;-74
2023/02/04 02:42:00;;;;;;;;;;;;;;;5.62;100.00;97749.00;5093840;28;19977;-74
2023/02/04 02:44:26;;;;;;;;;;;;;;;5.63;100.00;97758.44;5093604;28;19985;-74
2023/02/04 02:46:53;;;;;;;;;;;;;;;5.64;100.00;97751.47;5093638;28;20414;-74
2023/02/04 02:49:19;;;;;;;;;;;;;;;5.64;100.00;97767.88;5093517;28;19949;-74
2023/02/04 02:51:46;;;;;;;;;;;;;;;5.65;100.00;97766.94;5093714;28;19953;-74
2023/02/04 02:54:23;;;;;;;;;;;;;;;5.67;100.00;97758.97;5093646;28;19948;-74
2023/02/04 02:56:49;;;;;;;;;;;;;;;5.68;100.00;97771.00;5093610;28;19959;-74
2023/02/04 02:59:16;;;;;;;;;;;;;;;5.69;100.00;97785.63;5075755;28;19971;-75
2023/02/04 03:01:42;;;;;;;;;;;;;;;5.69;100.00;97788.22;5093835;28;19945;-74
2023/02/04 03:04:09;;;;;;;;;;;;;;;5.69;100.00;97788.22;5095563;28;20513;-74
2023/02/04 03:06:35;;;;;;;;;;;;;;;5.68;100.00;97781.41;5097782;28;19960;-74
2023/02/04 03:09:01;;;;;;;;;;;;;;;5.69;100.00;97783.03;5097501;28;19947;-74
2023/02/04 03:11:28;;;;;;;;;;;;;;;5.68;100.00;97791.81;5097889;28;19964;-74
2023/02/04 03:13:55;;;;;;;;;;;;;;;5.69;100.00;97799.50;5097919;28;20324;-74
2023/02/04 03:16:21;;;;;;;;;;;;;;;5.67;100.00;97801.44;5097252;28;19954;-75
2023/02/04 03:18:48;;;;;;;;;;;;;;;5.59;100.00;97796.16;5096777;28;19953;-74
2023/02/04 03:21:14;;;;;;;;;;;;;;;5.54;100.00;97795.78;5097460;28;20431;-74
2023/02/04 03:23:40;;;;;;;;;;;;;;;5.51;100.00;97808.31;5097360;28;20330;-74
2023/02/04 03:26:06;;;;;;;;;;;;;;;5.48;100.00;97802.44;5097381;28;19957;-74
2023/02/04 03:28:32;;;;;;;;;;;;;;;5.45;100.00;97807.94;5097486;28;20004;-74
2023/02/04 03:30:59;;;;;;;;;;;;;;;5.42;100.00;97805.66;5097052;28;19943;-74
2023/02/04 03:33:27;;;;;;;;;;;;;;;5.41;100.00;97808.38;5097274;28;19955;-76
2023/02/04 03:35:53;;;;;;;;;;;;;;;5.38;100.00;97804.31;5085544;28;20308;-74
2023/02/04 03:38:19;;;;;;;;;;;;;;;5.38;100.00;97813.91;5097242;28;20004;-75
2023/02/04 03:40:45;;;;;;;;;;;;;;;5.38;100.00;97816.50;5097007;28;20326;-74
2023/02/04 03:43:11;;;;;;;;;;;;;;;5.38;100.00;97814.72;5097488;28;20495;-74
2023/02/04 03:45:37;;;;;;;;;;;;;;;5.41;100.00;97824.00;5096808;28;19965;-75
2023/02/04 03:48:03;;;;;;;;;;;;;;;5.41;100.00;97835.22;5096753;28;19961;-74
2023/02/04 03:50:28;;;;;;;;;;;;;;;5.43;100.00;97837.69;5096710;28;19949;-74
2023/02/04 03:52:54;;;;;;;;;;;;;;;5.44;100.00;97840.13;5096755;28;19999;-75
2023/02/04 03:55:20;;;;;;;;;;;;;;;5.45;100.00;97839.16;5097067;28;20002;-74
2023/02/04 03:57:46;;;;;;;;;;;;;;;5.43;100.00;97841.09;5096923;28;19997;-74
2023/02/04 04:00:12;;;;;;;;;;;;;;;5.43;100.00;97851.50;5096545;28;19951;-74
2023/02/04 04:02:39;;;;;;;;;;;;;;;5.41;100.00;97845.63;5095883;28;19956;-74
2023/02/04 04:05:05;;;;;;;;;;;;;;;5.40;100.00;97851.00;5096523;28;20326;-74
2023/02/04 04:07:31;;;;;;;;;;;;;;;5.39;100.00;97850.16;5096728;28;20431;-74
2023/02/04 04:09:57;;;;;;;;;;;;;;;5.38;100.00;97850.34;5078364;28;19953;-74
2023/02/04 04:12:23;;;;;;;;;;;;;;;5.36;100.00;97855.69;5096583;28;19957;-75
2023/02/04 04:14:49;;;;;;;;;;;;;;;5.37;100.00;97856.47;5095993;28;19960;-74
2023/02/04 04:17:14;;;;;;;;;;;;;;;5.35;100.00;97848.00;5096204;28;19993;-74
2023/02/04 04:19:43;;;;;;;;;;;;;;;5.36;100.00;97858.28;5096305;28;19950;-74
2023/02/04 04:22:09;;;;;;;;;;;;;;;5.35;100.00;97854.03;5096322;28;19956;-74
2023/02/04 04:24:34;;;;;;;;;;;;;;;5.35;100.00;97859.22;5096539;28;20046;-74
2023/02/04 04:27:00;;;;;;;;;;;;;;;5.34;100.00;97857.59;5095984;28;19953;-74
2023/02/04 04:29:26;;;;;;;;;;;;;;;5.31;100.00;97867.50;5079436;28;19953;-74
2023/02/04 04:31:52;;;;;;;;;;;;;;;5.29;100.00;97875.44;5096331;28;19977;-74
2023/02/04 04:34:18;;;;;;;;;;;;;;;5.26;100.00;97879.16;5096186;28;20016;-74
2023/02/04 04:36:44;;;;;;;;;;;;;;;5.23;100.00;97882.06;5096239;28;20082;-74
2023/02/04 04:39:09;;;;;;;;;;;;;;;5.22;100.00;97883.00;5096010;28;19951;-74
2023/02/04 04:41:35;;;;;;;;;;;;;;;5.23;100.00;97887.28;5095380;28;19977;-75
2023/02/04 04:44:01;;;;;;;;;;;;;;;5.21;100.00;97884.00;5096167;28;20021;-74
2023/02/04 04:46:27;;;;;;;;;;;;;;;5.18;100.00;97893.88;5095694;28;20012;-74
2023/02/04 04:48:53;;;;;;;;;;;;;;;5.14;100.00;97898.53;5096019;28;19987;-74
2023/02/04 04:51:19;;;;;;;;;;;;;;;5.09;100.00;97895.56;5095856;28;20070;-75
2023/02/04 04:53:45;;;;;;;;;;;;;;;5.03;100.00;97899.56;5095517;28;19962;-74
2023/02/04 04:56:10;;;;;;;;;;;;;;;4.98;100.00;97901.00;5077460;28;19958;-75
2023/02/04 04:58:37;;;;;;;;;;;;;;;4.90;100.00;97893.91;5095569;28;20330;-74
2023/02/04 05:01:02;;;;;;;;;;;;;;;4.84;100.00;97890.13;5095327;28;19948;-74
2023/02/04 05:03:28;;;;;;;;;;;;;;;4.78;100.00;97890.69;5095460;28;19963;-74
2023/02/04 05:05:54;;;;;;;;;;;;;;;4.76;100.00;97894.41;5095277;28;20407;-74
2023/02/04 05:08:20;;;;;;;;;;;;;;;4.71;100.00;97891.44;5095258;28;20356;-75
2023/02/04 05:10:46;;;;;;;;;;;;;;;4.69;100.00;97883.78;5095385;28;19950;-74
2023/02/04 05:13:12;;;;;;;;;;;;;;;4.68;100.00;97898.56;5095677;28;20003;-74
2023/02/04 05:15:38;;;;;;;;;;;;;;;4.65;100.00;97892.81;5095114;28;19953;-74
2023/02/04 05:18:04;;;;;;;;;;;;;;;4.61;100.00;97894.88;5095704;28;19958;-74
2023/02/04 05:20:30;;;;;;;;;;;;;;;4.56;100.00;97904.09;5094872;28;20395;-74
2023/02/04 05:22:55;;;;;;;;;;;;;;;4.53;100.00;97901.75;5095174;28;19959;-74
2023/02/04 05:25:22;;;;;;;;;;;;;;;4.50;100.00;97904.66;5094941;28;20371;-74
2023/02/04 05:27:48;;;;;;;;;;;;;;;4.46;100.00;97904.94;5094546;28;19949;-74
2023/02/04 05:30:14;;;;;;;;;;;;;;;4.42;100.00;97903.59;5076811;28;19952;-74
2023/02/04 05:32:40;;;;;;;;;;;;;;;4.41;100.00;97901.13;5095176;28;19953;-74
2023/02/04 05:35:06;;;;;;;;;;;;;;;4.38;100.00;97907.44;5095178;28;19953;-74
2023/02/04 05:37:32;;;;;;;;;;;;;;;4.31;100.00;97915.94;5094845;28;19951;-74
2023/02/04 05:39:58;;;;;;;;;;;;;;;4.27;100.00;97918.81;5094394;28;19959;-74
2023/02/04 05:42:24;;;;;;;;;;;;;;;4.24;100.00;97907.88;5076273;28;20045;-74
2023/02/04 05:44:50;;;;;;;;;;;;;;;4.21;100.00;97914.19;5094627;28;20057;-74
2023/02/04 05:47:15;;;;;;;;;;;;;;;4.21;100.00;97919.38;5094479;28;19951;-74
2023/02/04 05:49:41;;;;;;;;;;;;;;;4.22;100.00;97927.97;5094917;28;20297;-74
2023/02/04 05:52:07;;;;;;;;;;;;;;;4.21;100.00;97936.75;5094339;28;20016;-74
2023/02/04 05:54:33;;;;;;;;;;;;;;;4.22;100.00;97933.16;5094435;28;20373;-75
2023/02/04 05:56:59;;;;;;;;;;;;;;;4.30;100.00;97937.66;5094263;28;19948;-74
2023/02/04 05:59:25;;;;;;;;;;;;;;;4.35;100.00;97928.50;5094779;28;19946;-74
2023/02/04 06:01:51;;;;;;;;;;;;;;;4.40;100.00;97930.66;5094465;28;19959;-74
2023/02/04 06:04:16;;;;;;;;;;;;;;;4.46;100.00;97930.09;5094607;28;19974;-74
2023/02/04 06:06:43;;;;;;;;;;;;;;;4.51;100.00;97927.06;5094159;28;19999;-74
2023/02/04 06:09:09;;;;;;;;;;;;;;;4.55;100.00;97923.22;5094237;28;20350;-74
2023/02/04 06:11:36;;;;;;;;;;;;;;;4.59;100.00;97932.38;5093955;28;19948;-74
2023/02/04 06:14:02;;;;;;;;;;;;;;;4.61;100.00;97940.84;5094294;28;19952;-74
2023/02/04 06:16:28;;;;;;;;;;;;;;;4.60;100.00;97941.78;5094175;28;19951;-74
2023/02/04 06:18:54;;;;;;;;;;;;;;;4.61;100.00;97943.44;5094131;28;20071;-74
2023/02/04 06:21:20;;;;;;;;;;;;;;;4.62;100.00;97945.06;5093845;28;19945;-74
2023/02/04 06:23:45;;;;;;;;;;;;;;;4.63;100.00;97952.72;5075755;28;19945;-74
2023/02/04 06:26:12;;;;;;;;;;;;;;;4.65;100.00;97960.38;5094370;28;19954;-74
2023/02/04 06:28:38;;;;;;;;;;;;;;;4.65;100.00;97958.59;5093853;28;19953;-74
2023/02/04 06:31:03;;;;;;;;;;;;;;;4.66;100.00;97956.81;5094021;28;19955;-74
2023/02/04 06:33:29;;;;;;;;;;;;;;;4.66;100.00;97956.81;5093833;28;19959;-74
2023/02/04 06:35:55;;;;;;;;;;;;;;;4.68;100.00;97973.91;5093847;28;19948;-74
2023/02/04 06:38:21;;;;;;;;;;;;;;;4.68;100.00;97973.09;5093510;28;19971;-74
2023/02/04 06:40:48;;;;;;;;;;;;;;;4.67;100.00;97969.66;5093857;28;19976;-74
2023/02/04 06:43:14;;;;;;;;;;;;;;;4.68;100.00;97980.88;5093505;28;19986;-74
2023/02/04 06:45:40;;;;;;;;;;;;;;;4.68;100.00;97984.31;5093697;28;19983;-74
2023/02/04 06:48:06;;;;;;;;;;;;;;;4.69;100.00;97992.94;5075925;28;20300;-74
2023/02/04 06:50:32;;;;;;;;;;;;;;;4.70;100.00;97983.34;5093698;28;19943;-74
2023/02/04 06:52:58;;;;;;;;;;;;;;;4.70;100.00;97989.34;5093528;28;20012;-74
2023/02/04 06:55:23;;;;;;;;;;;;;;;4.70;100.00;97991.13;5094032;28;19950;-74
2023/02/04 06:57:49;;;;;;;;;;;;;;;4.72;100.00;97999.59;5094136;28;19948;-74
2023/02/04 07:00:15;;;;;;;;;;;;;;;4.69;100.00;97998.13;5093473;28;19945;-74
2023/02/04 07:02:41;;;;;;;;;;;;;;;4.67;100.00;98000.03;5093488;28;20054;-74
2023/02/04 07:05:07;;;;;;;;;;;;;;;4.66;100.00;98003.59;5075569;28;19969;-74
2023/02/04 07:07:33;;;;;;;;;;;;;;;4.62;100.00;98007.44;5093610;28;19958;-74
2023/02/04 07:09:59;;;;;;;;;;;;;;;4.60;100.00;98009.34;5093666;28;19957;-74
2023/02/04 07:12:25;;;;;;;;;;;;;;;4.60;100.00;98015.38;5093744;28;19949;-74
2023/02/04 07:14:51;;;;;;;;;;;;;;;4.59;100.00;98011.13;5093413;28;20375;-74
2023/02/04 07:17:17;;;;;;;;;;;;;;;4.58;100.00;98022.50;5093458;28;20367;-74
2023/02/04 07:19:43;;;;;;;;;;;;;;;4.55;100.00;98020.16;5092759;28;20363;-74
2023/02/04 07:22:09;;;;;;;;;;;;;;;4.55;100.00;98020.16;5093318;28;19953;-74
2023/02/04 07:24:34;;;;;;;;;;;;;;;4.53;100.00;98024.69;5093350;28;19972;-74
2023/02/04 07:27:00;;;;;;;;;;;;;;;4.50;100.00;98026.78;5093767;28;19951;-74
2023/02/04 07:29:26;;;;;;;;;;;;;;;4.48;100.00;98032.91;5093202;28;19955;-74
2023/02/04 07:31:52;;;;;;;;;;;;;;;4.43;100.00;98016.94;5093357;28;20008;-74
2023/02/04 07:34:18;;;;;;;;;;;;;;;4.39;100.00;98014.72;5093269;28;20419;-74
2023/02/04 07:36:44;;;;;;;;;;;;;;;4.35;100.00;98023.78;5093236;28;19956;-74
2023/02/04 07:39:10;;;;;;;;;;;;;;;4.29;100.00;98027.75;5093394;28;20009;-74
2023/02/04 07:41:36;;;;;;;;;;;;;;;4.24;100.00;98035.97;5093828;28;20042;-74
2023/02/04 07:44:02;;;;;;;;;;;;;;;4.22;100.00;98045.66;5093522;28;19963;-74
2023/02/04 07:46:28;;;;;;;;;;;;;;;4.23;100.00;98057.69;5093213;28;19960;-74
2023/02/04 07:48:54;;;;;;;;;;;;;;;4.26;100.00;98059.19;5092710;28;20392;-74
2023/02/04 07:51:20;;;;;;;;;;;;;;;4.29;100.00;98050.31;5096596;28;19996;-74
2023/02/04 07:53:45;;;;;;;;;;;;;;;4.33;100.00;98055.09;5096934;28;20423;-74
2023/02/04 07:56:11;;;;;;;;;;;;;;;4.31;100.00;98058.78;5096746;28;19952;-76
2023/02/04 07:58:37;;;;;;;;;;;;;;;4.26;100.00;98060.03;5096924;28;20408;-74
2023/02/04 08:01:03;;;;;;;;;;;;;;;4.20;100.00;98063.16;5096966;28;20408;-74
2023/02/04 08:03:29;;;;;;;;;;;;;;;4.16;100.00;98058.34;5096476;28;19955;-74
2023/02/04 08:05:55;;;;;;;;;;;;;;;4.17;100.00;98063.44;5096116;28;19978;-74
2023/02/04 08:08:20;;;;;;;;;;;;;;;4.20;100.00;98062.31;5096671;28;20023;-74
2023/02/04 08:10:46;;;;;;;;;;;;;;;4.24;100.00;98061.09;5096500;28;20008;-74
2023/02/04 08:13:12;;;;;;;;;;;;;;;4.23;100.00;98059.47;5096263;28;19954;-74
2023/02/04 08:15:38;;;;;;;;;;;;;;;4.23;100.00;98075.84;5096445;28;19956;-74
2023/02/04 08:18:04;;;;;;;;;;;;;;;4.24;100.00;98072.31;5096447;28;20491;-74
2023/02/04 08:20:30;;;;;;;;;;;;;;;4.28;100.00;98072.84;5096415;28;20021;-74
2023/02/04 08:22:56;;;;;;;;;;;;;;;4.33;100.00;98073.28;5096240;28;20043;-74
2023/02/04 08:25:22;;;;;;;;;;;;;;;4.37;100.00;98079.03;5096234;28;20052;-74
2023/02/04 08:27:48;;;;;;;;;;;;;;;4.41;100.00;98078.59;5078217;28;19955;-74
2023/02/04 08:30:14;;;;;;;;;;;;;;;4.44;100.00;98085.28;5095578;28;20167;-74
2023/02/04 08:32:40;;;;;;;;;;;;;;;4.46;100.00;98084.19;5096138;28;19960;-74
2023/02/04 08:35:06;;;;;;;;;;;;;;;4.47;100.00;98098.81;5095840;28;20385;-74
2023/02/04 08:37:32;;;;;;;;;;;;;;;4.54;100.00;98098.28;5096209;28;19949;-74
2023/02/04 08:39:58;;;;;;;;;;;;;;;4.56;100.00;98104.16;5095589;28;19953;-74
2023/02/04 08:42:24;;;;;;;;;;;;;;;4.54;100.00;98112.09;5095729;28;20027;-74
2023/02/04 08:44:50;;;;;;;;;;;;;;;4.54;100.00;98111.28;5095784;28;19966;-74
2023/02/04 08:47:15;;;;;;;;;;;;;;;4.55;100.00;98108.50;5095896;28;20019;-74
2023/02/04 08:49:41;;;;;;;;;;;;;;;4.58;100.00;98113.44;5095542;28;20054;-74
2023/02/04 08:52:07;;;;;;;;;;;;;;;4.59;100.00;98109.88;5095885;28;19953;-74
2023/02/04 08:54:34;;;;;;;;;;;;;;;4.62;100.00;98116.56;5096124;28;19988;-74
2023/02/04 08:57:00;;;;;;;;;;;;;;;4.66;100.00;98117.94;5095641;28;19950;-74
2023/02/04 08:59:26;;;;;;;;;;;;;;;4.66;100.00;98123.13;5095504;28;19955;-74
2023/02/04 09:01:52;;;;;;;;;;;;;;;4.67;100.00;98117.81;5095647;28;20025;-74
2023/02/04 09:04:18;;;;;;;;;;;;;;;4.71;100.00;98125.34;5095113;28;19951;-74
2023/02/04 09:06:44;;;;;;;;;;;;;;;4.73;100.00;98123.41;5095841;28;19958;-74
2023/02/04 09:09:10;;;;;;;;;;;;;;;4.77;100.00;98137.78;5095828;28;19956;-74
2023/02/04 09:11:36;;;;;;;;;;;;;;;4.80;100.00;98137.47;5095419;28;19951;-74
2023/02/04 09:14:02;;;;;;;;;;;;;;;4.87;100.00;98139.41;5095222;28;20397;-74
2023/02/04 09:16:28;;;;;;;;;;;;;;;4.95;100.00;98132.66;5094676;28;20390;-74
2023/02/04 09:18:54;;;;;;;;;;;;;;;4.99;100.00;98134.84;5094995;28;19956;-74
2023/02/04 09:21:20;;;;;;;;;;;;;;;5.04;100.00;98142.22;5095405;28;20309;-74
2023/02/04 09:23:47;;;;;;;;;;;;;;;5.07;100.00;98144.53;5095056;28;20010;-75
2023/02/04 09:26:13;;;;;;;;;;;;;;;5.11;100.00;98150.28;5094945;28;19976;-74
2023/02/04 09:28:39;;;;;;;;;;;;;;;5.18;100.00;98148.75;5095022;28;20321;-74
2023/02/04 09:31:07;;;;;;;;;;;;;;;5.23;100.00;98146.56;5076997;28;20457;-74
2023/02/04 09:33:34;;;;;;;;;;;;;;;5.22;100.00;98143.13;5095099;28;20327;-75
2023/02/04 09:36:00;;;;;;;;;;;;;;;5.27;100.00;98151.34;5094914;28;19952;-74
2023/02/04 09:38:26;;;;;;;;;;;;;;;5.35;100.00;98147.19;5094810;28;19954;-74
2023/02/04 09:40:56;;;;;;;;;;;;;;;5.43;100.00;98158.53;5094737;28;19953;-74
2023/02/04 09:43:26;;;;;;;;;;;;;;;5.52;100.00;98161.22;5094540;28;19982;-74
2023/02/04 09:45:53;;;;;;;;;;;;;;;5.60;100.00;98162.16;5094497;28;19968;-74
2023/02/04 09:48:20;;;;;;;;;;;;;;;5.67;100.00;98171.03;5094524;28;19952;-74
2023/02/04 09:50:46;;;;;;;;;;;;;;;5.74;100.00;98163.47;5094520;28;20388;-74
2023/02/04 09:53:14;;;;;;;;;;;;;;;5.78;100.00;98172.63;5094773;28;19955;-74
2023/02/04 09:55:43;;;;;;;;;;;;;;;5.84;100.00;98171.25;5094507;28;19948;-74
2023/02/04 09:58:13;;;;;;;;;;;;;;;5.91;100.00;98174.88;5094408;28;19945;-74
2023/02/04 10:00:39;;;;;;;;;;;;;;;5.92;100.00;98173.91;5094528;28;19950;-74
2023/02/04 10:03:10;;;;;;;;;;;;;;;5.88;100.00;98168.19;5094250;28;19969;-74
2023/02/04 10:05:37;;;;;;;;;;;;;;;5.93;100.00;98166.94;5094406;28;19964;-74
2023/02/04 10:08:04;;;;;;;;;;;;;;;6.13;100.00;98185.91;5094526;28;19945;-74
2023/02/04 10:10:30;;;;;;;;;;;;;;;6.26;100.00;98161.13;5094331;28;20413;-74
2023/02/04 10:12:58;;;;;;;;;;;;;;;6.34;100.00;98159.56;5094139;28;19961;-74
2023/02/04 10:15:25;;;;;;;;;;;;;;;6.33;100.00;98147.50;5094152;28;20016;-74
2023/02/04 10:17:53;;;;;;;;;;;;;;;6.27;100.00;98157.53;5094207;28;19948;-74
2023/02/04 10:20:21;;;;;;;;;;;;;;;6.15;100.00;98157.91;5094350;28;19948;-74
2023/02/04 10:22:47;;;;;;;;;;;;;;;6.01;100.00;98170.47;5093883;28;19949;-74
2023/02/04 10:25:14;;;;;;;;;;;;;;;5.95;100.00;98172.84;5093970;28;19966;-74
2023/02/04 10:27:50;;;;;;;;;;;;;;;5.90;100.00;98155.03;5093865;28;19953;-74
2023/02/04 10:30:21;;;;;;;;;;;;;;;5.90;100.00;98160.25;5094056;28;19953;-74
2023/02/04 10:32:47;;;;;;;;;;;;;;;5.87;100.00;98163.13;5094005;28;19946;-74
2023/02/04 10:35:14;;;;;;;;;;;;;;;5.84;100.00;98166.03;5094069;28;19946;-74
2023/02/04 10:37:40;;;;;;;;;;;;;;;5.82;100.00;98155.75;5093861;28;19949;-74
2023/02/04 10:40:24;;;;;;;;;;;;;;;5.77;100.00;98165.75;5075712;28;19956;-74
2023/02/04 10:42:51;;;;;;;;;;;;;;;5.73;100.00;98140.16;5081412;28;19985;-74
2023/02/04 10:45:27;;;;;;;;;;;;;;;5.72;100.00;98143.75;5093858;28;19964;-74
2023/02/04 10:47:54;;;;;;;;;;;;;;;5.75;100.00;98146.88;5094022;28;20352;-74
2023/02/04 10:50:21;;;;;;;;;;;;;;;5.77;98.62;98118.91;5093698;28;19944;-74
2023/02/04 10:55:42;;;;;;;;;;;;;;;5.78;100.00;98138.78;5093600;28;19947;-74
2023/02/04 10:58:10;;;;;;;;;;;;;;;5.80;100.00;98126.44;5093922;28;20322;-74
2023/02/04 11:00:36;;;;;;;;;;;;;;;5.89;100.00;98148.97;5093579;28;19955;-74
2023/02/04 11:03:10;;;;;;;;;;;;;;;5.99;100.00;98148.97;5093467;28;20637;-74
2023/02/04 11:05:37;;;;;;;;;;;;;;;5.97;100.00;98150.91;5093522;28;19963;-74
2023/02/04 11:08:18;;;;;;;;;;;;;;;5.88;100.00;98147.38;5093732;28;19954;-74
2023/02/04 11:10:44;;;;;;;;;;;;;;;5.88;100.00;98149.16;5093854;28;19950;-74
2023/02/04 11:13:19;;;;;;;;;;;;;;;5.93;99.03;98138.28;5093486;28;19996;-74
2023/02/04 11:15:46;;;;;;;;;;;;;;;5.94;99.32;98142.53;5093512;28;19957;-74
2023/02/04 11:18:18;;;;;;;;;;;;;;;5.87;98.80;98150.09;5093351;28;19951;-74
2023/02/04 11:20:45;;;;;;;;;;;;;;;5.80;95.20;98121.22;5093484;28;19962;-74
2023/02/04 11:23:25;;;;;;;;;;;;;;;5.76;97.59;98143.31;5093668;28;19955;-74
2023/02/04 11:26:03;;;;;;;;;;;;;;;5.74;98.83;98147.03;5082787;28;19959;-74
2023/02/04 11:28:37;;;;;;;;;;;;;;;5.67;99.19;98150.22;5097216;28;19972;-74
2023/02/04 11:31:12;;;;;;;;;;;;;;;5.62;99.63;98142.00;5097882;28;19958;-74
2023/02/04 11:33:40;;;;;;;;;;;;;;;5.61;99.93;98156.00;5097383;28;19955;-74
2023/02/04 11:36:12;;;;;;;;;;;;;;;5.62;100.00;98168.03;5097303;28;19948;-74
2023/02/04 11:38:38;;;;;;;;;;;;;;;5.64;100.00;98157.47;5096780;28;19943;-74
2023/02/04 11:41:04;;;;;;;;;;;;;;;5.66;100.00;98153.75;5097164;28;19955;-74
2023/02/04 11:43:34;;;;;;;;;;;;;;;5.70;100.00;98159.50;5096919;28;20463;-74
2023/02/04 11:46:12;;;;;;;;;;;;;;;5.74;100.00;98154.84;5097014;28;19972;-74
2023/02/04 11:48:38;;;;;;;;;;;;;;;5.81;99.36;98146.28;5096893;28;19941;-74
2023/02/04 11:51:11;;;;;;;;;;;;;;;5.85;100.00;98157.25;5096674;28;19950;-74
2023/02/04 11:53:37;;;;;;;;;;;;;;;5.87;98.28;98140.50;5080818;28;20410;-74
2023/02/04 11:56:03;;;;;;;;;;;;;;;5.93;99.84;98151.31;5096707;28;19951;-74
2023/02/04 11:58:29;;;;;;;;;;;;;;;5.98;96.56;98138.69;5096951;28;19951;-74
2023/02/04 12:00:55;;;;;;;;;;;;;;;6.02;97.91;98138.25;5096678;28;20353;-74
2023/02/04 12:03:22;;;;;;;;;;;;;;;6.04;97.48;98136.31;5096760;28;19998;-74
2023/02/04 12:05:49;;;;;;;;;;;;;;;6.02;97.61;98140.84;5096535;28;19967;-74
2023/02/04 12:08:21;;;;;;;;;;;;;;;6.08;93.67;98116.00;5096497;28;20061;-74
2023/02/04 12:10:50;;;;;;;;;;;;;;;6.21;92.74;98118.25;5083631;28;19954;-74
2023/02/04 12:13:22;;;;;;;;;;;;;;;6.26;95.02;98127.25;5096749;28;19952;-74
2023/02/04 12:15:54;;;;;;;;;;;;;;;6.30;92.04;98110.38;5096469;28;20341;-74
2023/02/04 12:18:20;;;;;;;;;;;;;;;6.42;93.36;98125.75;5096515;28;20393;-74
2023/02/04 12:20:46;;;;;;;;;;;;;;;6.38;90.05;98096.56;5096183;28;19957;-74
2023/02/04 12:23:11;;;;;;;;;;;;;;;6.33;91.47;98118.84;5078081;28;19961;-74
2023/02/04 12:25:37;;;;;;;;;;;;;;;6.34;93.40;98131.75;5095899;28;20374;-74
2023/02/04 12:28:03;;;;;;;;;;;;;;;6.43;92.38;98123.00;5077977;28;20333;-74
2023/02/04 12:30:29;;;;;;;;;;;;;;;6.69;91.93;98127.44;5095689;28;19956;-74
2023/02/04 12:32:55;;;;;;;;;;;;;;;6.93;84.28;98056.41;5096187;28;20401;-74
2023/02/04 12:35:21;;;;;;;;;;;;;;;7.14;89.64;98102.13;5095399;28;20322;-74
2023/02/04 12:37:47;;;;;;;;;;;;;;;7.24;82.24;98022.75;5095903;28;19957;-74
2023/02/04 12:40:14;;;;;;;;;;;;;;;7.23;89.13;98093.38;5095635;28;19952;-74
2023/02/04 12:42:40;;;;;;;;;;;;;;;7.04;85.73;98076.97;5095843;28;19978;-74
2023/02/04 12:45:06;;;;;;;;;;;;;;;6.91;88.48;98100.88;5095265;28;19973;-74
2023/02/04 12:47:32;;;;;;;;;;;;;;;6.83;86.79;98102.63;5095526;28;19979;-74